Impacts TAF Board
For situational awareness. Not to be used for flight planning purposes.
IDs:

KDFW - Dallas-Ft Worth Intl, TX, US

Issued at 1238 UTC 05 Apr 2020
Updated at 1336 UTC 05 Apr 2020
Potential Impact None Slight Moderate High
Time1253Z 05/14Z 05/15Z 05/16Z 05/17Z 05/18Z 05/19Z 05/20Z 05/21Z 05/22Z 05/23Z 06/00Z 06/01Z 06/02Z>>
Type OBS PRVL
  [TEMP]  
PRVL PRVL PRVL PRVL PRVL PRVL PRVL PRVL PRVL PRVL PRVL PRVL
VIS 2 3
  [1]  
3 >6 >6 >6 >6 >6 >6 >6 >6 >6 >6 >6
CIG 3 4
  [2]  
4 15 15 15 15 25 25 25 25 25 25 25
Cover OVC OVC
  [OVC]  
OVC OVC OVC OVC OVC OVC OVC OVC OVC OVC OVC OVC
FltCat LIFR LIFR
  [LIFR]  
LIFR MVFR MVFR MVFR MVFR MVFR MVFR MVFR MVFR MVFR MVFR MVFR
WX BR BR
  [BR]  
BR -- -- -- -- -- -- -- -- -- -- --
WDir 30 40
[40]
40 110 110 110 110 150 150 150 150 150 150 150
WSpd 5 6
  [6]  
6 7 7 7 7 8 8 8 8 8 8 8
WGst -- --
  [--]  
-- -- -- -- -- -- -- -- -- -- -- --
Raw TAF
KDFW 051238Z 0513/0618 04006KT 3SM BR OVC004
  TEMPO 0513/0515 1SM BR OVC002
  FM051600 11007KT P6SM OVC015
  FM052000 15008KT P6SM OVC025
  FM061000 15008KT P6SM OVC010


Raw METAR
KDFW 051253Z 03005KT 2SM BR OVC003 09/08 A3007 RMK AO2 SFC VIS 4 SLP181 T00890083
KDFW 051225Z 04006KT 3/4SM BR OVC003 08/08 A3006 RMK AO2 SFC VIS 2 T00830083
KDFW 051153Z 05004KT 2SM R17C/3500VP6000FT BR OVC005 09/08 A3006 RMK AO2 SFC VIS 6 SLP178 70015 T00890083 10089 20083 53010
KDFW 051150Z 06004KT 2SM R17C/6000VP6000FT BR OVC005 09/08 A3006 RMK AO2 SFC VIS 6
KDFW 051053Z 34006KT 1 1/2SM BR OVC003 09/08 A3004 RMK AO2 SFC VIS 4 SLP172 T00890083
KDFW 051039Z 33006KT 1 1/2SM BR OVC003 09/08 A3004 RMK AO2 SFC VIS 4 T00890083

METAR Board
Radar Display
Forecast Discussion
For situational awareness. Not to be used for flight planning purposes.